Time;durP1;ratioP1;P1;durP2;ratioP2;P2;SDS_P1;SDS_P2;PMS_P1;PMS_P2;Temp;Humidity;BMP_temperature;BMP_pressure;BME280_temperature;BME280_humidity;BME280_pressure;Samples;Min_cycle;Max_cycle;Signal;HPM_P1;HPM_P2
2023/05/19 00:01:48;;;;;;;2.33;1.40;;;;;;;;;;5052780;28;20052;-78
2023/05/19 00:04:14;;;;;;;1.73;1.40;;;;;;;;;;5036009;28;20059;-78
2023/05/19 00:06:40;;;;;;;3.58;1.58;;;;;;;;;;5053988;28;20035;-78
2023/05/19 00:09:08;;;;;;;3.15;1.20;;;;;;;;;;5052734;28;20036;-79
2023/05/19 00:11:37;;;;;;;2.05;1.23;;;;;;;;;;5052701;28;20024;-78
2023/05/19 00:14:05;;;;;;;1.15;1.05;;;;;;;;;;5052919;28;20025;-77
2023/05/19 00:16:30;;;;;;;4.00;1.40;;;;;;;;;;5035841;28;20070;-78
2023/05/19 00:18:58;;;;;;;2.15;1.35;;;;;;;;;;5035805;28;20033;-78
2023/05/19 00:21:24;;;;;;;4.63;1.40;;;;;;;;;;5035649;28;20028;-78
2023/05/19 00:23:49;;;;;;;3.25;1.63;;;;;;;;;;5035985;28;20052;-78
2023/05/19 00:26:15;;;;;;;2.40;2.13;;;;;;;;;;5052374;28;20029;-78
2023/05/19 00:28:40;;;;;;;3.25;1.63;;;;;;;;;;5053613;28;20040;-78
2023/05/19 00:31:05;;;;;;;1.52;1.20;;;;;;;;;;5053280;28;20027;-78
2023/05/19 00:33:32;;;;;;;3.63;1.50;;;;;;;;;;5053780;28;20476;-78
2023/05/19 00:35:58;;;;;;;2.95;1.20;;;;;;;;;;5035758;28;20392;-78
2023/05/19 00:38:24;;;;;;;4.45;1.42;;;;;;;;;;5052292;28;20055;-78
2023/05/19 00:40:49;;;;;;;2.30;1.30;;;;;;;;;;5053341;28;20037;-78
2023/05/19 00:43:14;;;;;;;3.20;1.40;;;;;;;;;;5035468;28;20025;-78
2023/05/19 00:45:40;;;;;;;2.17;1.42;;;;;;;;;;5052265;28;20032;-78
2023/05/19 00:48:05;;;;;;;2.60;1.20;;;;;;;;;;5052006;28;20028;-78
2023/05/19 00:50:31;;;;;;;1.88;1.23;;;;;;;;;;5052317;28;20033;-78
2023/05/19 00:52:56;;;;;;;1.77;1.33;;;;;;;;;;5052283;28;20021;-78
2023/05/19 00:55:26;;;;;;;2.35;1.35;;;;;;;;;;5052175;28;20533;-78
2023/05/19 00:57:51;;;;;;;3.33;1.52;;;;;;;;;;5048406;28;20088;-78
2023/05/19 01:00:17;;;;;;;2.20;1.23;;;;;;;;;;5033230;28;20559;-78
2023/05/19 01:02:42;;;;;;;2.13;1.20;;;;;;;;;;5048615;28;20033;-78
2023/05/19 01:05:08;;;;;;;2.30;1.77;;;;;;;;;;5032906;28;20029;-78
2023/05/19 01:07:33;;;;;;;2.85;1.25;;;;;;;;;;5048538;28;20112;-78
2023/05/19 01:09:59;;;;;;;1.70;1.45;;;;;;;;;;5033115;28;20041;-78
2023/05/19 01:12:25;;;;;;;5.05;1.48;;;;;;;;;;5032335;28;20033;-78
2023/05/19 01:14:50;;;;;;;2.08;1.20;;;;;;;;;;5048764;28;20029;-78
2023/05/19 01:17:34;;;;;;;4.50;1.33;;;;;;;;;;5049225;28;20037;-78
2023/05/19 01:20:20;;;;;;;1.83;1.10;;;;;;;;;;5052558;28;20032;-78
2023/05/19 01:23:04;;;;;;;2.55;1.33;;;;;;;;;;5037320;28;20025;-78
2023/05/19 01:25:44;;;;;;;3.72;1.20;;;;;;;;;;5037285;28;20080;-78
2023/05/19 01:28:43;;;;;;;1.60;1.20;;;;;;;;;;5037341;28;20375;-78
2023/05/19 01:31:09;;;;;;;2.80;1.58;;;;;;;;;;5019383;28;20029;-78
2023/05/19 01:33:34;;;;;;;3.22;1.20;;;;;;;;;;5002790;28;20488;-78
2023/05/19 01:36:02;;;;;;;1.63;1.30;;;;;;;;;;5052313;28;20025;-78
2023/05/19 01:38:28;;;;;;;2.28;1.38;;;;;;;;;;5052669;28;20061;-78
2023/05/19 01:40:55;;;;;;;3.35;1.20;;;;;;;;;;5019060;28;20511;-78
2023/05/19 01:43:23;;;;;;;1.95;1.25;;;;;;;;;;5018873;28;20036;-78
2023/05/19 01:45:49;;;;;;;2.45;1.20;;;;;;;;;;5036706;28;20032;-78
2023/05/19 01:48:15;;;;;;;2.65;1.27;;;;;;;;;;5036510;28;20043;-78
2023/05/19 01:50:41;;;;;;;1.35;1.17;;;;;;;;;;5036602;28;20030;-78
2023/05/19 01:53:07;;;;;;;3.15;1.60;;;;;;;;;;5036548;28;20033;-78
2023/05/19 01:55:34;;;;;;;3.00;1.30;;;;;;;;;;5036574;28;20033;-78
2023/05/19 01:58:15;;;;;;;1.95;1.15;;;;;;;;;;5038261;28;20102;-79
2023/05/19 02:01:12;;;;;;;2.65;1.33;;;;;;;;;;5056555;28;20460;-79
2023/05/19 02:04:02;;;;;;;1.45;1.17;;;;;;;;;;5056726;28;20029;-78
2023/05/19 02:06:39;;;;;;;1.42;1.10;;;;;;;;;;5038296;28;20048;-78
2023/05/19 02:09:14;;;;;;;1.38;1.10;;;;;;;;;;5056178;28;20028;-78
2023/05/19 02:11:52;;;;;;;2.50;1.40;;;;;;;;;;5038255;28;20106;-78
2023/05/19 02:14:45;;;;;;;1.10;1.00;;;;;;;;;;5055385;28;20044;-78
2023/05/19 02:17:12;;;;;;;3.30;1.30;;;;;;;;;;5038411;28;20084;-78
2023/05/19 02:19:38;;;;;;;2.63;1.33;;;;;;;;;;5054932;28;20105;-78
2023/05/19 02:22:04;;;;;;;3.22;1.08;;;;;;;;;;5037992;28;20126;-78
2023/05/19 02:24:29;;;;;;;3.83;1.42;;;;;;;;;;5054967;28;20057;-79
2023/05/19 02:26:55;;;;;;;2.13;1.17;;;;;;;;;;5037966;28;20033;-78
2023/05/19 02:29:20;;;;;;;1.30;1.17;;;;;;;;;;5036981;28;20063;-78
2023/05/19 02:31:46;;;;;;;1.77;1.30;;;;;;;;;;5056077;28;20395;-79
2023/05/19 02:34:11;;;;;;;3.00;1.50;;;;;;;;;;5021371;28;20079;-78
2023/05/19 02:36:40;;;;;;;2.75;1.20;;;;;;;;;;5054629;28;20033;-78
2023/05/19 02:39:05;;;;;;;2.28;1.00;;;;;;;;;;5037653;28;20075;-78
2023/05/19 02:41:31;;;;;;;2.22;1.30;;;;;;;;;;5038063;28;20029;-78
2023/05/19 02:43:56;;;;;;;2.72;1.33;;;;;;;;;;5054207;28;20036;-78
2023/05/19 02:46:22;;;;;;;2.20;1.27;;;;;;;;;;5037629;28;20056;-79
2023/05/19 02:48:47;;;;;;;2.75;1.20;;;;;;;;;;5037863;28;20546;-78
2023/05/19 02:51:13;;;;;;;2.10;1.23;;;;;;;;;;5055611;28;20472;-78
2023/05/19 02:53:38;;;;;;;2.47;1.30;;;;;;;;;;5054421;28;20025;-78
2023/05/19 02:56:04;;;;;;;2.10;1.20;;;;;;;;;;5055064;28;20045;-78
2023/05/19 02:58:29;;;;;;;1.70;1.17;;;;;;;;;;5055404;28;20025;-78
2023/05/19 03:00:55;;;;;;;1.67;1.10;;;;;;;;;;5037375;28;20044;-78
2023/05/19 03:03:20;;;;;;;2.35;1.30;;;;;;;;;;5053905;28;20047;-78
2023/05/19 03:05:46;;;;;;;1.30;1.20;;;;;;;;;;5053957;28;20472;-78
2023/05/19 03:08:11;;;;;;;2.45;1.25;;;;;;;;;;5053898;28;20449;-78
2023/05/19 03:10:37;;;;;;;1.65;1.25;;;;;;;;;;5054117;28;20060;-78
2023/05/19 03:13:02;;;;;;;3.38;1.40;;;;;;;;;;5054008;28;20029;-78
2023/05/19 03:15:28;;;;;;;2.50;1.30;;;;;;;;;;5054847;28;20087;-78
2023/05/19 03:17:53;;;;;;;1.83;1.48;;;;;;;;;;5055087;28;20467;-77
2023/05/19 03:20:18;;;;;;;2.97;1.38;;;;;;;;;;5055229;28;20037;-78
2023/05/19 03:22:44;;;;;;;1.52;1.13;;;;;;;;;;5053575;28;20025;-78
2023/05/19 03:25:10;;;;;;;1.55;1.10;;;;;;;;;;5036798;28;20033;-78
2023/05/19 03:27:35;;;;;;;3.72;1.30;;;;;;;;;;5054695;28;20472;-78
2023/05/19 03:30:00;;;;;;;2.88;1.42;;;;;;;;;;5054680;28;20032;-78
2023/05/19 03:32:26;;;;;;;2.17;1.40;;;;;;;;;;5053529;28;20429;-78
2023/05/19 03:34:51;;;;;;;3.90;1.30;;;;;;;;;;5036622;28;20021;-78
2023/05/19 03:37:16;;;;;;;2.22;1.25;;;;;;;;;;5036611;28;20499;-77
2023/05/19 03:39:42;;;;;;;3.15;1.38;;;;;;;;;;5054371;28;20490;-77
2023/05/19 03:42:07;;;;;;;3.03;1.70;;;;;;;;;;5054294;28;20073;-78
2023/05/19 03:44:33;;;;;;;3.65;1.52;;;;;;;;;;5036197;28;20136;-77
2023/05/19 03:46:58;;;;;;;1.92;1.50;;;;;;;;;;5054226;28;20494;-78
2023/05/19 03:49:23;;;;;;;2.35;1.40;;;;;;;;;;5036492;28;20033;-78
2023/05/19 03:51:49;;;;;;;2.90;1.38;;;;;;;;;;5053023;28;20032;-78
2023/05/19 03:54:14;;;;;;;2.92;1.30;;;;;;;;;;5052776;28;20021;-78
2023/05/19 03:56:41;;;;;;;1.80;1.10;;;;;;;;;;5054031;28;20049;-78
2023/05/19 03:59:09;;;;;;;2.67;1.48;;;;;;;;;;5052873;28;20472;-78
2023/05/19 04:01:35;;;;;;;2.00;1.20;;;;;;;;;;5052189;28;20036;-78
2023/05/19 04:04:01;;;;;;;3.25;1.30;;;;;;;;;;5052212;28;20053;-79
2023/05/19 04:06:26;;;;;;;1.73;1.30;;;;;;;;;;5052043;28;20056;-78
2023/05/19 04:08:52;;;;;;;2.58;1.20;;;;;;;;;;5035350;28;20032;-78
2023/05/19 04:11:18;;;;;;;2.08;1.40;;;;;;;;;;5035260;28;20064;-78
2023/05/19 04:13:44;;;;;;;1.00;0.90;;;;;;;;;;5053563;28;20029;-78
2023/05/19 04:16:10;;;;;;;3.05;1.00;;;;;;;;;;5035339;28;20489;-78
2023/05/19 04:18:35;;;;;;;3.15;1.40;;;;;;;;;;5035070;28;20044;-78
2023/05/19 04:21:00;;;;;;;3.42;1.40;;;;;;;;;;5053306;28;20029;-78
2023/05/19 04:23:26;;;;;;;3.83;1.67;;;;;;;;;;5035097;28;20029;-77
2023/05/19 04:25:53;;;;;;;2.78;1.33;;;;;;;;;;5035581;28;20399;-77
2023/05/19 04:28:18;;;;;;;1.23;1.05;;;;;;;;;;5053014;28;20028;-77
2023/05/19 04:30:45;;;;;;;1.90;1.35;;;;;;;;;;5051676;28;20032;-78
2023/05/19 04:33:11;;;;;;;2.05;1.63;;;;;;;;;;5051199;28;20082;-78
2023/05/19 04:35:38;;;;;;;2.38;1.35;;;;;;;;;;5051395;28;20108;-78
2023/05/19 04:38:04;;;;;;;2.70;1.30;;;;;;;;;;5051673;28;20048;-78
2023/05/19 04:40:29;;;;;;;1.65;1.30;;;;;;;;;;5051407;28;20031;-78
2023/05/19 04:42:56;;;;;;;2.80;1.67;;;;;;;;;;5051423;28;20404;-77
2023/05/19 04:45:22;;;;;;;2.75;1.20;;;;;;;;;;5052731;28;20036;-78
2023/05/19 04:47:47;;;;;;;1.63;1.15;;;;;;;;;;5034738;28;20025;-77
2023/05/19 04:50:13;;;;;;;4.10;1.67;;;;;;;;;;5051492;28;20036;-78
2023/05/19 04:52:41;;;;;;;2.88;1.17;;;;;;;;;;5034550;28;20025;-77
2023/05/19 04:55:07;;;;;;;2.55;1.25;;;;;;;;;;5051482;28;20449;-78
2023/05/19 04:57:32;;;;;;;3.83;1.50;;;;;;;;;;5052519;28;20136;-77
2023/05/19 04:59:59;;;;;;;5.00;1.45;;;;;;;;;;5051183;28;20033;-78
2023/05/19 05:02:27;;;;;;;1.58;1.25;;;;;;;;;;5018196;28;20499;-78
2023/05/19 05:04:53;;;;;;;4.13;1.20;;;;;;;;;;5052539;28;20155;-78
2023/05/19 05:07:20;;;;;;;2.75;1.45;;;;;;;;;;5051170;28;20067;-78
2023/05/19 05:09:46;;;;;;;4.18;1.33;;;;;;;;;;5051308;28;20096;-78
2023/05/19 05:12:12;;;;;;;1.70;1.38;;;;;;;;;;5034713;28;20115;-78
2023/05/19 05:14:38;;;;;;;1.42;1.10;;;;;;;;;;5052473;28;20033;-78
2023/05/19 05:17:04;;;;;;;1.67;1.20;;;;;;;;;;5052892;28;20399;-78
2023/05/19 05:19:31;;;;;;;2.28;1.30;;;;;;;;;;5034405;28;20037;-79
2023/05/19 05:21:56;;;;;;;2.13;1.45;;;;;;;;;;5052220;28;20705;-78
2023/05/19 05:24:22;;;;;;;1.83;1.42;;;;;;;;;;5051946;28;20044;-78
2023/05/19 05:26:48;;;;;;;2.08;1.67;;;;;;;;;;5052733;28;20530;-78
2023/05/19 05:29:13;;;;;;;2.05;1.45;;;;;;;;;;5052226;28;20094;-77
2023/05/19 05:31:38;;;;;;;6.07;1.50;;;;;;;;;;5052861;28;20033;-78
2023/05/19 05:34:04;;;;;;;3.63;1.63;;;;;;;;;;5034664;28;20529;-78
2023/05/19 05:36:30;;;;;;;4.63;1.58;;;;;;;;;;5052253;28;20039;-77
2023/05/19 05:38:56;;;;;;;5.40;2.10;;;;;;;;;;5034945;28;20032;-77
2023/05/19 05:41:21;;;;;;;3.70;1.50;;;;;;;;;;5052401;28;20037;-78
2023/05/19 05:43:46;;;;;;;1.25;1.15;;;;;;;;;;5017955;28;20055;-78
2023/05/19 05:46:12;;;;;;;3.70;1.70;;;;;;;;;;5034259;28;20127;-78
2023/05/19 05:48:37;;;;;;;2.88;1.30;;;;;;;;;;5052294;28;20033;-78
2023/05/19 05:51:04;;;;;;;2.17;1.27;;;;;;;;;;5017781;28;20372;-78
2023/05/19 05:53:32;;;;;;;1.45;1.25;;;;;;;;;;5052024;28;20494;-77
2023/05/19 05:55:58;;;;;;;3.33;1.25;;;;;;;;;;5051950;28;20029;-78
2023/05/19 05:58:23;;;;;;;2.20;1.50;;;;;;;;;;5017476;28;20065;-78
2023/05/19 06:00:50;;;;;;;5.80;1.98;;;;;;;;;;5052109;28;20043;-78
2023/05/19 06:03:15;;;;;;;1.67;1.20;;;;;;;;;;5052699;28;20454;-78
2023/05/19 06:05:41;;;;;;;3.33;1.73;;;;;;;;;;5021371;28;20034;-78
2023/05/19 06:08:06;;;;;;;2.65;1.35;;;;;;;;;;5021206;28;20028;-78
2023/05/19 06:10:31;;;;;;;3.13;1.60;;;;;;;;;;5037998;28;20029;-78
2023/05/19 06:12:57;;;;;;;2.63;1.42;;;;;;;;;;5021490;28;20492;-78
2023/05/19 06:15:22;;;;;;;1.65;1.25;;;;;;;;;;5021401;28;20029;-78
2023/05/19 06:17:48;;;;;;;2.33;1.50;;;;;;;;;;5021206;28;20033;-78
2023/05/19 06:20:13;;;;;;;2.65;1.42;;;;;;;;;;5037694;28;20036;-78
2023/05/19 06:22:39;;;;;;;2.25;1.40;;;;;;;;;;5037392;28;20453;-78
2023/05/19 06:25:07;;;;;;;3.85;1.60;;;;;;;;;;5055280;28;20539;-78
2023/05/19 06:27:33;;;;;;;2.53;1.50;;;;;;;;;;5037864;28;20025;-78
2023/05/19 06:29:58;;;;;;;2.20;1.20;;;;;;;;;;5055244;28;20036;-78
2023/05/19 06:32:23;;;;;;;2.97;1.38;;;;;;;;;;5020947;28;20037;-79
2023/05/19 06:34:52;;;;;;;4.15;1.58;;;;;;;;;;5055899;28;20036;-77
2023/05/19 06:37:22;;;;;;;2.53;1.25;;;;;;;;;;5037410;28;20553;-80
2023/05/19 06:39:52;;;;;;;3.38;1.90;;;;;;;;;;5038539;28;20029;-79
2023/05/19 06:42:21;;;;;;;2.63;1.42;;;;;;;;;;5037912;28;20033;-80
2023/05/19 06:44:50;;;;;;;9.00;2.15;;;;;;;;;;5037446;28;20120;-80
2023/05/19 06:47:16;;;;;;;9.40;2.90;;;;;;;;;;5037957;28;20036;-81
2023/05/19 06:49:43;;;;;;;15.20;3.67;;;;;;;;;;5037832;28;20065;-81
2023/05/19 06:52:09;;;;;;;12.90;3.20;;;;;;;;;;5037203;28;20025;-81
2023/05/19 06:54:34;;;;;;;22.25;3.53;;;;;;;;;;5055044;28;20043;-81
2023/05/19 06:57:00;;;;;;;13.65;3.30;;;;;;;;;;5054939;28;20029;-81
2023/05/19 06:59:25;;;;;;;19.13;3.63;;;;;;;;;;5036919;28;20086;-81
2023/05/19 07:01:50;;;;;;;12.90;3.25;;;;;;;;;;5037371;28;20033;-80
2023/05/19 07:04:16;;;;;;;11.65;2.95;;;;;;;;;;5040007;28;20028;-79
2023/05/19 07:06:41;;;;;;;13.98;2.78;;;;;;;;;;5038130;28;20106;-80
2023/05/19 07:09:07;;;;;;;14.60;3.72;;;;;;;;;;5039215;28;20040;-80
2023/05/19 07:11:33;;;;;;;12.75;2.80;;;;;;;;;;5055909;28;20436;-80
2023/05/19 07:13:58;;;;;;;7.75;2.33;;;;;;;;;;5056124;28;20056;-79
2023/05/19 07:16:24;;;;;;;6.82;2.38;;;;;;;;;;5004583;28;20510;-80
2023/05/19 07:18:49;;;;;;;7.38;2.60;;;;;;;;;;5020810;28;20471;-81
2023/05/19 07:21:15;;;;;;;6.97;2.53;;;;;;;;;;5021689;28;20505;-81
2023/05/19 07:23:40;;;;;;;10.52;2.47;;;;;;;;;;5020227;28;20029;-79
2023/05/19 07:26:06;;;;;;;8.07;2.60;;;;;;;;;;5036952;28;20029;-79
2023/05/19 07:28:33;;;;;;;5.93;2.17;;;;;;;;;;5019825;28;20395;-79
2023/05/19 07:30:58;;;;;;;9.45;2.65;;;;;;;;;;5036642;28;20104;-80
2023/05/19 07:33:25;;;;;;;8.05;2.00;;;;;;;;;;5020146;28;20029;-80
2023/05/19 07:35:51;;;;;;;6.18;2.15;;;;;;;;;;5036693;28;20104;-80
2023/05/19 07:38:16;;;;;;;6.93;2.10;;;;;;;;;;5036424;28;20124;-80
2023/05/19 07:40:42;;;;;;;6.68;2.15;;;;;;;;;;5036634;28;20036;-80
2023/05/19 07:43:07;;;;;;;4.97;1.98;;;;;;;;;;5036644;28;20510;-79
2023/05/19 07:45:33;;;;;;;11.55;2.10;;;;;;;;;;5054445;28;20025;-79
2023/05/19 07:47:58;;;;;;;5.30;1.90;;;;;;;;;;5036631;28;20036;-80
2023/05/19 07:50:24;;;;;;;4.32;1.80;;;;;;;;;;5036341;28;20113;-79
2023/05/19 07:52:50;;;;;;;7.82;1.85;;;;;;;;;;5054266;28;20364;-79
2023/05/19 07:55:16;;;;;;;10.73;2.05;;;;;;;;;;5036066;28;20033;-79
2023/05/19 07:57:42;;;;;;;8.57;1.80;;;;;;;;;;5036539;28;20130;-78
2023/05/19 08:00:10;;;;;;;7.70;2.10;;;;;;;;;;5054412;28;20037;-80
2023/05/19 08:02:36;;;;;;;5.13;1.35;;;;;;;;;;5019985;28;20369;-79
2023/05/19 08:05:01;;;;;;;5.68;1.75;;;;;;;;;;5036565;28;20028;-79
2023/05/19 08:07:27;;;;;;;5.18;2.00;;;;;;;;;;5053492;28;20044;-79
2023/05/19 08:09:52;;;;;;;7.60;2.10;;;;;;;;;;5053893;28;20033;-79
2023/05/19 08:12:18;;;;;;;11.43;2.20;;;;;;;;;;5035278;28;20035;-79
2023/05/19 08:14:43;;;;;;;7.30;1.73;;;;;;;;;;5035587;28;20392;-78
2023/05/19 08:17:08;;;;;;;8.55;1.92;;;;;;;;;;5035470;28;20114;-79
2023/05/19 08:19:34;;;;;;;6.68;2.05;;;;;;;;;;5035600;28;20409;-79
2023/05/19 08:22:00;;;;;;;8.18;1.90;;;;;;;;;;5019793;28;20039;-80
2023/05/19 08:24:28;;;;;;;8.77;1.80;;;;;;;;;;5035189;28;20393;-79
2023/05/19 08:26:54;;;;;;;5.35;1.75;;;;;;;;;;5035557;28;20029;-79
2023/05/19 08:29:19;;;;;;;4.03;1.40;;;;;;;;;;5018666;28;20029;-80
2023/05/19 08:31:44;;;;;;;3.92;1.52;;;;;;;;;;5035830;28;20028;-79
2023/05/19 08:34:10;;;;;;;5.18;1.73;;;;;;;;;;5019139;28;20111;-79
2023/05/19 08:36:35;;;;;;;5.78;1.55;;;;;;;;;;5052910;28;20033;-80
2023/05/19 08:39:01;;;;;;;6.25;1.83;;;;;;;;;;5035452;28;20029;-79
2023/05/19 08:41:26;;;;;;;8.30;1.67;;;;;;;;;;5035244;28;20116;-79
2023/05/19 08:44:04;;;;;;;4.25;1.33;;;;;;;;;;5019257;28;20041;-79
2023/05/19 08:46:30;;;;;;;2.88;1.42;;;;;;;;;;5036980;28;20215;-79
2023/05/19 08:48:59;;;;;;;6.22;1.70;;;;;;;;;;5036621;28;20058;-79
2023/05/19 08:51:40;;;;;;;5.90;1.48;;;;;;;;;;5035341;28;20028;-78
2023/05/19 08:54:16;;;;;;;5.18;1.80;;;;;;;;;;5035009;28;20021;-79
2023/05/19 08:56:43;;;;;;;7.10;2.00;;;;;;;;;;5035242;28;20472;-80
2023/05/19 08:59:09;;;;;;;6.15;1.67;;;;;;;;;;5018948;28;20032;-79
2023/05/19 09:01:38;;;;;;;5.45;1.65;;;;;;;;;;5018483;28;20537;-79
2023/05/19 09:04:05;;;;;;;3.70;1.55;;;;;;;;;;5052735;28;20487;-79
2023/05/19 09:06:31;;;;;;;5.60;1.65;;;;;;;;;;5035289;28;20082;-79
2023/05/19 09:08:56;;;;;;;7.25;1.83;;;;;;;;;;5018364;28;20061;-79
2023/05/19 09:11:22;;;;;;;8.35;2.00;;;;;;;;;;5034571;28;20035;-79
2023/05/19 09:13:48;;;;;;;3.83;1.52;;;;;;;;;;5053111;28;20032;-79
2023/05/19 09:16:14;;;;;;;4.70;1.30;;;;;;;;;;5053070;28;20021;-79
2023/05/19 09:18:42;;;;;;;3.92;1.42;;;;;;;;;;5034796;28;20100;-78
2023/05/19 09:21:09;;;;;;;4.30;1.60;;;;;;;;;;5034838;28;20025;-79
2023/05/19 09:23:34;;;;;;;4.07;1.45;;;;;;;;;;5036199;28;20028;-79
2023/05/19 09:26:06;;;;;;;4.10;1.27;;;;;;;;;;5052617;28;20036;-79
2023/05/19 09:28:32;;;;;;;7.53;1.60;;;;;;;;;;5035619;28;20021;-80
2023/05/19 09:31:02;;;;;;;5.57;1.58;;;;;;;;;;5035069;28;20102;-80
2023/05/19 09:33:28;;;;;;;3.85;1.60;;;;;;;;;;5018489;28;20036;-80
2023/05/19 09:35:57;;;;;;;4.13;1.63;;;;;;;;;;5034865;28;20032;-79
2023/05/19 09:38:24;;;;;;;4.40;1.65;;;;;;;;;;5019278;28;20460;-80
2023/05/19 09:40:51;;;;;;;3.88;1.58;;;;;;;;;;5039106;28;20029;-80
2023/05/19 09:43:16;;;;;;;7.75;1.52;;;;;;;;;;5038524;28;20075;-80
2023/05/19 09:45:41;;;;;;;4.70;1.70;;;;;;;;;;5038951;28;20057;-79
2023/05/19 09:48:07;;;;;;;3.88;1.65;;;;;;;;;;5038337;28;20434;-79
2023/05/19 09:50:32;;;;;;;5.43;1.65;;;;;;;;;;5056106;28;20036;-80
2023/05/19 09:52:58;;;;;;;3.13;1.77;;;;;;;;;;5038786;28;20044;-78
2023/05/19 09:55:27;;;;;;;3.17;1.30;;;;;;;;;;5038240;28;20040;-81
2023/05/19 09:57:56;;;;;;;3.33;1.48;;;;;;;;;;5038217;28;20098;-80
2023/05/19 10:00:22;;;;;;;4.40;1.67;;;;;;;;;;5037908;28;20033;-80
2023/05/19 10:02:49;;;;;;;4.15;1.63;;;;;;;;;;5005530;28;20055;-80
2023/05/19 10:05:16;;;;;;;3.60;1.50;;;;;;;;;;5038188;28;20025;-80
2023/05/19 10:07:44;;;;;;;10.52;2.00;;;;;;;;;;5038372;28;20017;-80
2023/05/19 10:10:11;;;;;;;6.45;1.73;;;;;;;;;;5056281;28;20033;-79
2023/05/19 10:12:38;;;;;;;5.57;1.60;;;;;;;;;;5056208;28;20391;-79
2023/05/19 10:15:06;;;;;;;6.32;1.70;;;;;;;;;;5038375;28;20017;-79
2023/05/19 10:17:33;;;;;;;4.05;1.52;;;;;;;;;;5037775;28;20080;-79
2023/05/19 10:19:59;;;;;;;5.50;1.70;;;;;;;;;;5055906;28;20039;-79
2023/05/19 10:22:24;;;;;;;10.52;1.80;;;;;;;;;;5021756;28;20033;-79
2023/05/19 10:24:50;;;;;;;3.42;1.52;;;;;;;;;;5055863;28;20025;-79
2023/05/19 10:27:16;;;;;;;3.72;1.73;;;;;;;;;;5055750;28;20032;-79
2023/05/19 10:29:46;;;;;;;7.07;2.30;;;;;;;;;;5055566;28;20110;-79
2023/05/19 10:32:20;;;;;;;8.38;2.47;;;;;;;;;;5038162;28;20487;-79
2023/05/19 10:35:04;;;;;;;;;;;;;;;;;;5038619;28;20112;-77
2023/05/19 10:38:00;;;;;;;6.95;2.30;;;;;;;;;;5055994;28;19908;-78
2023/05/19 10:40:33;;;;;;;8.45;2.40;;;;;;;;;;5037612;28;20368;-78
2023/05/19 10:43:13;;;;;;;12.27;2.45;;;;;;;;;;5021422;28;20029;-80
2023/05/19 10:45:51;;;;;;;8.75;2.35;;;;;;;;;;5037685;28;20087;-77
2023/05/19 10:48:19;;;;;;;6.63;2.10;;;;;;;;;;5038053;28;20029;-79
2023/05/19 10:50:45;;;;;;;8.23;2.65;;;;;;;;;;5020107;28;20404;-77
2023/05/19 10:53:19;;;;;;;9.45;2.30;;;;;;;;;;5038046;28;20025;-77
2023/05/19 10:55:54;;;;;;;7.05;2.15;;;;;;;;;;5021721;28;20079;-78
2023/05/19 10:58:42;;;;;;;7.80;2.60;;;;;;;;;;5055518;28;20049;-78
2023/05/19 11:01:09;;;;;;;5.65;1.70;;;;;;;;;;5055461;28;20047;-77
2023/05/19 11:03:48;;;;;;;10.43;2.25;;;;;;;;;;5038103;28;20036;-78
2023/05/19 11:06:36;;;;;;;9.35;2.20;;;;;;;;;;5053790;28;20025;-77
2023/05/19 11:09:24;;;;;;;4.80;2.40;;;;;;;;;;5037929;28;20033;-77
2023/05/19 11:11:52;;;;;;;8.40;3.05;;;;;;;;;;5037613;28;20029;-77
2023/05/19 11:14:21;;;;;;;5.72;2.78;;;;;;;;;;5037572;28;20499;-77
2023/05/19 11:16:51;;;;;;;6.10;2.60;;;;;;;;;;5037806;28;20052;-77
2023/05/19 11:19:30;;;;;;;7.45;2.58;;;;;;;;;;5021005;28;20044;-77
2023/05/19 11:22:20;;;;;;;4.45;2.55;;;;;;;;;;5021360;28;20116;-78
2023/05/19 11:24:51;;;;;;;7.50;2.10;;;;;;;;;;5021938;28;20044;-78
2023/05/19 11:27:32;;;;;;;6.65;2.30;;;;;;;;;;5055517;28;20112;-78
2023/05/19 11:30:13;;;;;;;4.32;2.08;;;;;;;;;;5021771;28;20067;-78
2023/05/19 11:32:43;;;;;;;2.15;1.75;;;;;;;;;;5022592;28;20503;-78
2023/05/19 11:35:21;;;;;;;4.85;2.28;;;;;;;;;;5021684;28;20116;-77
2023/05/19 11:37:54;;;;;;;4.25;1.88;;;;;;;;;;5038324;28;20098;-78
2023/05/19 11:40:20;;;;;;;7.72;2.45;;;;;;;;;;5021018;28;20039;-78
2023/05/19 11:42:46;;;;;;;6.13;2.00;;;;;;;;;;5037237;28;20025;-78
2023/05/19 11:45:11;;;;;;;4.60;2.00;;;;;;;;;;5037009;28;20025;-77
2023/05/19 11:47:37;;;;;;;4.32;1.70;;;;;;;;;;5036923;28;20082;-78
2023/05/19 11:50:03;;;;;;;6.68;2.20;;;;;;;;;;5004218;28;20039;-79
2023/05/19 11:52:30;;;;;;;15.75;3.88;;;;;;;;;;5021615;28;20507;-79
2023/05/19 11:55:00;;;;;;;13.60;3.63;;;;;;;;;;5035818;28;20037;-78
2023/05/19 11:57:26;;;;;;;11.52;3.45;;;;;;;;;;5036297;28;20432;-78
2023/05/19 11:59:55;;;;;;;11.65;3.38;;;;;;;;;;5020248;28;20029;-77
2023/05/19 12:02:24;;;;;;;9.98;3.75;;;;;;;;;;5054220;28;20032;-79
2023/05/19 12:04:53;;;;;;;8.90;3.15;;;;;;;;;;5055023;28;20036;-79
2023/05/19 12:07:21;;;;;;;8.93;3.35;;;;;;;;;;5036409;28;20118;-78
2023/05/19 12:09:48;;;;;;;13.85;2.80;;;;;;;;;;5020339;28;20025;-79
2023/05/19 12:12:19;;;;;;;11.20;2.63;;;;;;;;;;5036274;28;20028;-78
2023/05/19 12:14:56;;;;;;;8.30;2.45;;;;;;;;;;5020834;28;20025;-78
2023/05/19 12:17:26;;;;;;;8.18;2.80;;;;;;;;;;5036356;28;20033;-77
2023/05/19 12:19:53;;;;;;;10.00;2.63;;;;;;;;;;5020969;28;20035;-79
2023/05/19 12:22:45;;;;;;;10.52;2.78;;;;;;;;;;5036565;28;20037;-78
2023/05/19 12:25:25;;;;;;;11.93;2.80;;;;;;;;;;5021720;28;20035;-78
2023/05/19 12:27:56;;;;;;;6.60;2.25;;;;;;;;;;5023511;28;20079;-78
2023/05/19 12:30:27;;;;;;;8.15;2.40;;;;;;;;;;5036399;28;20028;-80
2023/05/19 12:32:55;;;;;;;8.77;2.17;;;;;;;;;;5053816;28;20079;-78
2023/05/19 12:35:28;;;;;;;6.97;2.03;;;;;;;;;;5035581;28;20033;-77
2023/05/19 12:37:53;;;;;;;7.50;2.50;;;;;;;;;;5053384;28;20025;-79
2023/05/19 12:40:19;;;;;;;9.88;2.70;;;;;;;;;;5035621;28;20091;-77
2023/05/19 12:42:44;;;;;;;8.93;2.80;;;;;;;;;;5035721;28;20032;-78
2023/05/19 12:45:10;;;;;;;6.75;2.70;;;;;;;;;;5033370;28;20037;-77
2023/05/19 12:47:36;;;;;;;8.30;3.05;;;;;;;;;;5035365;28;20036;-78
2023/05/19 12:50:07;;;;;;;7.68;2.72;;;;;;;;;;5053199;28;20025;-78
2023/05/19 12:52:40;;;;;;;9.40;3.10;;;;;;;;;;5035336;28;20075;-78
2023/05/19 12:55:06;;;;;;;;;;;;;;;;;;5019125;28;20387;-76
2023/05/19 12:57:43;;;;;;;6.95;2.72;;;;;;;;;;5035296;28;19916;-78
2023/05/19 13:00:16;;;;;;;7.60;2.97;;;;;;;;;;5019203;28;20033;-78
2023/05/19 13:02:57;;;;;;;5.95;2.70;;;;;;;;;;5053796;28;20033;-77
2023/05/19 13:05:22;;;;;;;5.03;2.22;;;;;;;;;;5034984;28;20141;-80
2023/05/19 13:07:59;;;;;;;10.68;2.90;;;;;;;;;;5035133;28;20064;-77
2023/05/19 13:10:28;;;;;;;6.30;2.10;;;;;;;;;;5035466;28;20472;-77
2023/05/19 13:12:55;;;;;;;4.38;2.20;;;;;;;;;;5019760;28;20066;-77
2023/05/19 13:15:30;;;;;;;7.43;2.70;;;;;;;;;;5025126;28;20107;-77
2023/05/19 13:17:56;;;;;;;8.15;2.17;;;;;;;;;;5041807;28;20029;-77
2023/05/19 13:20:22;;;;;;;4.82;2.33;;;;;;;;;;5025310;28;20610;-77
2023/05/19 13:22:47;;;;;;;6.18;2.15;;;;;;;;;;5025352;28;20119;-76
2023/05/19 13:25:13;;;;;;;2.92;1.90;;;;;;;;;;5041773;28;20037;-76
2023/05/19 13:27:39;;;;;;;4.85;2.28;;;;;;;;;;5059748;28;20036;-76
2023/05/19 13:30:05;;;;;;;7.65;1.90;;;;;;;;;;5041499;28;20036;-77
2023/05/19 13:32:31;;;;;;;5.93;2.20;;;;;;;;;;5041979;28;20029;-76
2023/05/19 13:34:57;;;;;;;3.85;1.70;;;;;;;;;;5041615;28;20047;-76
2023/05/19 13:37:23;;;;;;;3.72;1.70;;;;;;;;;;5059698;28;20029;-76
2023/05/19 13:39:48;;;;;;;5.88;1.88;;;;;;;;;;5059506;28;20492;-76
2023/05/19 13:42:13;;;;;;;3.35;1.70;;;;;;;;;;5059417;28;20438;-76
2023/05/19 13:44:39;;;;;;;2.78;1.73;;;;;;;;;;5041456;28;20032;-76
2023/05/19 13:47:04;;;;;;;4.05;1.60;;;;;;;;;;5040489;28;20119;-76
2023/05/19 13:49:30;;;;;;;4.38;1.60;;;;;;;;;;5038422;28;20048;-77
2023/05/19 13:51:57;;;;;;;5.47;1.77;;;;;;;;;;5055868;28;20029;-76
2023/05/19 13:54:22;;;;;;;7.60;2.08;;;;;;;;;;5054495;28;20029;-76
2023/05/19 13:56:48;;;;;;;2.40;1.52;;;;;;;;;;5020710;28;20035;-77
2023/05/19 13:59:16;;;;;;;2.85;1.70;;;;;;;;;;5059252;28;20064;-77
2023/05/19 14:01:42;;;;;;;2.90;1.48;;;;;;;;;;5057233;28;20415;-77
2023/05/19 14:04:07;;;;;;;2.60;1.40;;;;;;;;;;5037879;28;20039;-77
2023/05/19 14:06:33;;;;;;;3.45;1.45;;;;;;;;;;5059229;28;20493;-76
2023/05/19 14:08:58;;;;;;;5.28;1.50;;;;;;;;;;5041064;28;20515;-75
2023/05/19 14:11:25;;;;;;;2.38;1.50;;;;;;;;;;5040988;28;20523;-76
2023/05/19 14:13:50;;;;;;;1.92;1.42;;;;;;;;;;5041100;28;20502;-76
2023/05/19 14:16:16;;;;;;;3.83;1.48;;;;;;;;;;5024801;28;20025;-76
2023/05/19 14:18:42;;;;;;;2.58;1.38;;;;;;;;;;5038740;28;20489;-76
2023/05/19 14:21:07;;;;;;;3.00;1.60;;;;;;;;;;5023113;28;20170;-76
2023/05/19 14:23:33;;;;;;;2.17;1.25;;;;;;;;;;5039241;28;20484;-76
2023/05/19 14:25:58;;;;;;;1.65;1.23;;;;;;;;;;5021887;28;20120;-76
2023/05/19 14:28:24;;;;;;;2.25;1.42;;;;;;;;;;5022094;28;20058;-76
2023/05/19 14:30:49;;;;;;;3.45;1.30;;;;;;;;;;5038299;28;20052;-76
2023/05/19 14:33:15;;;;;;;3.85;1.55;;;;;;;;;;5056086;28;20029;-76
2023/05/19 14:35:41;;;;;;;2.45;1.40;;;;;;;;;;5038100;28;20033;-76
2023/05/19 14:38:06;;;;;;;3.97;1.33;;;;;;;;;;5038039;28;20124;-76
2023/05/19 14:40:32;;;;;;;2.97;1.50;;;;;;;;;;5038028;28;20036;-76
2023/05/19 14:42:57;;;;;;;2.25;1.42;;;;;;;;;;5038335;28;20450;-76
2023/05/19 14:45:22;;;;;;;2.72;1.48;;;;;;;;;;5021309;28;20075;-76
2023/05/19 14:47:48;;;;;;;2.25;1.33;;;;;;;;;;5037797;28;20083;-76